createdAt,value
2022-08-30T00:01:25.955Z,99364.33
2022-08-30T00:06:30.825Z,99369.04
2022-08-30T00:11:33.823Z,99367.48
2022-08-30T00:16:36.704Z,99372.00
2022-08-30T00:21:40.798Z,99376.27
2022-08-30T00:26:43.697Z,99375.19
2022-08-30T00:31:46.969Z,99381.36
2022-08-30T00:36:49.921Z,99383.27
2022-08-30T00:41:52.787Z,99388.15
2022-08-30T00:46:55.813Z,99385.59
2022-08-30T00:51:59.124Z,99380.29
2022-08-30T00:57:03.525Z,99384.17
2022-08-30T01:02:07.431Z,99382.25
2022-08-30T01:07:10.597Z,99378.91
2022-08-30T01:12:13.699Z,99376.49
2022-08-30T01:17:21.299Z,99377.45
2022-08-30T01:22:50.430Z,99374.59
2022-08-30T01:28:05.614Z,99373.80
2022-08-30T01:33:11.096Z,99370.42
2022-08-30T01:38:16.187Z,99365.19
2022-08-30T01:43:19.642Z,99372.99
2022-08-30T01:48:22.590Z,99373.93
2022-08-30T01:53:33.819Z,99369.83
2022-08-30T01:58:37.978Z,99368.92
2022-08-30T02:03:43.410Z,99366.93
2022-08-30T02:08:46.821Z,99366.77
2022-08-30T02:13:50.841Z,99364.38
2022-08-30T02:18:56.283Z,99360.67
2022-08-30T02:23:59.082Z,99356.08
2022-08-30T02:29:05.451Z,99360.92
2022-08-30T02:34:08.381Z,99369.92
2022-08-30T02:39:13.557Z,99365.13
2022-08-30T02:44:16.641Z,99356.19
2022-08-30T02:49:34.959Z,99352.59
2022-08-30T02:54:37.953Z,99353.01
2022-08-30T02:59:44.400Z,99352.82
2022-08-30T03:04:48.151Z,99358.03
2022-08-30T03:09:51.218Z,99360.71
2022-08-30T03:14:54.553Z,99358.80
2022-08-30T03:20:02.391Z,99357.89
2022-08-30T03:25:08.590Z,99360.23
2022-08-30T03:30:13.216Z,99365.35
2022-08-30T03:35:17.456Z,99368.80
2022-08-30T03:40:22.021Z,99368.37
2022-08-30T03:45:26.827Z,99369.21
2022-08-30T03:50:31.080Z,99373.76
2022-08-30T03:55:34.258Z,99378.34
2022-08-30T04:00:37.860Z,99380.64
2022-08-30T04:05:40.961Z,99387.27
2022-08-30T04:10:44.291Z,99393.33
2022-08-30T04:15:48.062Z,99394.17
2022-08-30T04:20:51.970Z,99398.39
2022-08-30T04:25:55.856Z,99398.77
2022-08-30T04:30:59.228Z,99403.48
2022-08-30T04:36:07.754Z,99406.84
2022-08-30T04:41:17.009Z,99410.17
2022-08-30T04:46:20.212Z,99414.73
2022-08-30T04:51:23.089Z,99409.53
2022-08-30T04:56:26.294Z,99417.67
2022-08-30T05:01:32.538Z,99420.20
2022-08-30T05:06:48.867Z,99421.59
2022-08-30T05:11:51.822Z,99422.11
2022-08-30T05:16:54.987Z,99428.17
2022-08-30T05:21:57.834Z,99433.91
2022-08-30T05:27:00.887Z,99430.94
2022-08-30T05:32:04.674Z,99431.55
2022-08-30T05:37:07.531Z,99434.21
2022-08-30T05:42:10.374Z,99434.83
2022-08-30T05:47:13.727Z,99432.85
2022-08-30T05:52:18.296Z,99432.56
2022-08-30T05:57:21.847Z,99435.82
2022-08-30T06:02:24.809Z,99440.92
2022-08-30T06:07:28.643Z,99442.80
2022-08-30T06:12:31.693Z,99447.67
2022-08-30T06:17:34.870Z,99446.16
2022-08-30T06:22:39.088Z,99447.81
2022-08-30T06:27:42.674Z,99447.05
2022-08-30T06:32:45.492Z,99446.88
2022-08-30T06:37:48.321Z,99452.67
2022-08-30T06:42:51.767Z,99451.58
2022-08-30T06:47:54.790Z,99451.24
2022-08-30T06:53:04.622Z,99449.00
2022-08-30T06:58:07.569Z,99451.90
2022-08-30T07:03:10.724Z,99455.18
2022-08-30T07:08:13.880Z,99456.30
2022-08-30T07:13:17.614Z,99455.69
2022-08-30T07:18:39.793Z,99458.24
2022-08-30T07:23:44.381Z,99460.41
2022-08-30T07:28:47.928Z,99462.58
2022-08-30T07:33:55.416Z,99460.09
2022-08-30T07:38:58.476Z,99460.36
2022-08-30T07:44:02.196Z,99458.66
2022-08-30T07:49:11.277Z,99459.15
2022-08-30T07:54:14.833Z,99449.80
2022-08-30T07:59:17.966Z,99453.52
2022-08-30T08:04:21.038Z,99451.32
2022-08-30T08:09:23.903Z,99445.88
2022-08-30T08:14:28.513Z,99449.83
2022-08-30T08:19:31.545Z,99454.93
2022-08-30T08:24:34.519Z,99453.24
2022-08-30T08:29:37.519Z,99453.27
2022-08-30T08:34:41.625Z,99457.72
2022-08-30T08:39:44.675Z,99460.48
2022-08-30T08:44:51.109Z,99460.61
2022-08-30T08:50:03.191Z,99462.77
2022-08-30T08:55:13.959Z,99463.19
2022-08-30T09:00:17.100Z,99459.75
2022-08-30T09:05:26.035Z,99456.02
2022-08-30T09:10:49.215Z,99452.73
2022-08-30T09:15:55.416Z,99454.02
2022-08-30T09:21:05.720Z,99454.06
2022-08-30T09:26:09.619Z,99456.35
2022-08-30T09:31:23.762Z,99453.24
2022-08-30T09:36:32.342Z,99456.50
2022-08-30T09:41:41.519Z,99447.24
2022-08-30T09:46:51.325Z,99441.98
2022-08-30T09:52:32.551Z,99448.36
2022-08-30T09:57:49.177Z,99447.25
2022-08-30T10:03:13.180Z,99445.08
2022-08-30T10:08:27.219Z,99437.42
2022-08-30T10:13:49.067Z,99431.92
2022-08-30T10:19:16.886Z,99424.73
2022-08-30T10:24:32.826Z,99421.18
2022-08-30T10:29:43.454Z,99417.95
2022-08-30T10:34:56.434Z,99418.42
2022-08-30T10:40:26.065Z,99419.14
2022-08-30T10:45:33.196Z,99413.67
2022-08-30T10:50:42.754Z,99407.16
2022-08-30T10:55:52.362Z,99402.77
2022-08-30T11:01:16.905Z,99398.02
2022-08-30T11:06:36.849Z,99394.08
2022-08-30T11:11:58.443Z,99392.27
2022-08-30T11:17:02.319Z,99395.58
2022-08-30T11:22:24.559Z,99402.08
2022-08-30T11:27:51.528Z,99395.87
2022-08-30T11:33:26.501Z,99401.48
2022-08-30T11:38:30.024Z,99401.79
2022-08-30T11:43:36.700Z,99400.95
2022-08-30T11:48:54.167Z,99400.23
2022-08-30T11:54:23.473Z,99390.46
2022-08-30T11:59:46.466Z,99379.54
2022-08-30T12:04:50.666Z,99370.08
2022-08-30T12:09:53.998Z,99372.52
2022-08-30T12:14:57.946Z,99367.27
2022-08-30T12:20:01.335Z,99358.45
2022-08-30T12:25:21.374Z,99349.94
2022-08-30T12:30:28.135Z,99342.02
2022-08-30T12:35:31.795Z,99330.23
2022-08-30T12:40:35.321Z,99325.27
2022-08-30T12:45:44.291Z,99320.93
2022-08-30T12:50:52.376Z,99318.84
2022-08-30T12:56:02.198Z,99307.00
2022-08-30T13:01:18.567Z,99301.04
2022-08-30T13:06:54.069Z,99301.34
2022-08-30T13:11:59.752Z,99297.89
2022-08-30T13:17:18.735Z,99296.13
2022-08-30T13:22:28.529Z,99290.37
2022-08-30T13:27:32.506Z,99294.00
2022-08-30T13:32:40.427Z,99291.33
2022-08-30T13:37:50.045Z,99288.43
2022-08-30T13:42:55.426Z,99288.58
2022-08-30T13:48:00.326Z,99283.86
2022-08-30T13:53:04.220Z,99280.95
2022-08-30T13:58:07.233Z,99278.34
2022-08-30T14:03:14.027Z,99275.55
2022-08-30T14:19:13.101Z,99261.88
2022-08-30T14:24:16.071Z,99260.88
2022-08-30T14:29:26.351Z,99255.61
2022-08-30T14:34:31.772Z,99249.27
2022-08-30T14:39:35.846Z,99256.59
2022-08-30T14:44:55.136Z,99255.27
2022-08-30T14:50:01.014Z,99256.17
2022-08-30T14:55:08.873Z,99254.43
2022-08-30T15:00:13.787Z,99252.63
2022-08-30T15:05:17.691Z,99246.94
2022-08-30T15:10:21.737Z,99250.36
2022-08-30T15:15:26.170Z,99248.85
2022-08-30T15:20:30.670Z,99245.95
2022-08-30T15:25:33.629Z,99250.16
2022-08-30T15:30:36.947Z,99249.17
2022-08-30T15:35:40.299Z,99246.83
2022-08-30T15:40:44.756Z,99249.02
2022-08-30T15:45:47.954Z,99248.45
2022-08-30T15:50:58.230Z,99248.90
2022-08-30T15:56:01.242Z,99246.24
2022-08-30T16:01:05.815Z,99247.20
2022-08-30T16:06:19.660Z,99241.97
2022-08-30T16:11:25.269Z,99240.10
2022-08-30T16:16:29.015Z,99231.72
2022-08-30T16:21:34.191Z,99232.30
2022-08-30T16:26:37.938Z,99229.68
2022-08-30T16:31:44.397Z,99231.23
2022-08-30T16:36:47.679Z,99233.95
2022-08-30T16:41:50.780Z,99229.48
2022-08-30T16:46:54.065Z,99230.96
2022-08-30T16:51:57.193Z,99226.67
2022-08-30T16:57:00.451Z,99228.97
2022-08-30T17:02:03.760Z,99237.67
2022-08-30T17:07:07.455Z,99236.46
2022-08-30T17:12:17.178Z,99244.94
2022-08-30T17:17:22.002Z,99249.38
2022-08-30T17:22:25.146Z,99254.83
2022-08-30T17:27:29.273Z,99267.98
2022-08-30T17:32:32.326Z,99272.41
2022-08-30T17:37:35.535Z,99277.09
2022-08-30T17:42:38.565Z,99284.63
2022-08-30T17:47:42.785Z,99292.56
2022-08-30T17:52:46.063Z,99299.40
2022-08-30T17:57:50.912Z,99308.88
2022-08-30T18:02:54.966Z,99313.57
2022-08-30T18:07:58.420Z,99323.31
2022-08-30T18:13:03.825Z,99329.80
2022-08-30T18:18:11.547Z,99337.48
2022-08-30T18:23:16.906Z,99345.73
2022-08-30T18:28:20.014Z,99344.17
2022-08-30T18:33:25.276Z,99347.02
2022-08-30T18:38:28.591Z,99351.08
2022-08-30T18:43:31.441Z,99354.19
2022-08-30T18:48:35.147Z,99356.17
2022-08-30T18:53:38.742Z,99361.66
2022-08-30T18:58:45.099Z,99363.17
2022-08-30T19:03:48.064Z,99366.95
2022-08-30T19:08:51.920Z,99371.00
2022-08-30T19:13:55.067Z,99368.27
2022-08-30T19:18:58.499Z,99363.15
2022-08-30T19:24:01.749Z,99361.67
2022-08-30T19:29:05.920Z,99362.39
2022-08-30T19:34:09.907Z,99365.92
2022-08-30T19:39:13.018Z,99366.60
2022-08-30T19:44:16.168Z,99362.08
2022-08-30T19:49:19.093Z,99366.15
2022-08-30T19:54:22.024Z,99369.48
2022-08-30T19:59:25.023Z,99369.70
2022-08-30T20:04:28.136Z,99362.63
2022-08-30T20:09:31.061Z,99362.30
2022-08-30T20:14:34.247Z,99366.38
2022-08-30T20:19:37.373Z,99360.47
2022-08-30T20:24:44.007Z,99362.08
2022-08-30T20:29:49.241Z,99353.09
2022-08-30T20:34:53.958Z,99354.30
2022-08-30T20:39:57.405Z,99360.90
2022-08-30T20:45:00.455Z,99363.98
2022-08-30T20:50:09.141Z,99361.59
2022-08-30T20:55:18.188Z,99359.35
2022-08-30T21:00:21.511Z,99359.45
2022-08-30T21:05:25.411Z,99363.48
2022-08-30T21:10:28.389Z,99366.99
2022-08-30T21:15:37.719Z,99371.02
2022-08-30T21:20:41.730Z,99371.35
2022-08-30T21:25:44.877Z,99365.36
2022-08-30T21:30:47.963Z,99370.95
2022-08-30T21:36:10.093Z,99371.50
2022-08-30T21:41:13.101Z,99372.83
2022-08-30T21:46:16.885Z,99370.51
2022-08-30T21:51:20.355Z,99374.80
2022-08-30T21:56:23.608Z,99389.31
2022-08-30T22:01:29.515Z,99392.39
2022-08-30T22:06:34.659Z,99393.77
2022-08-30T22:11:37.839Z,99390.63
2022-08-30T22:16:42.197Z,99386.87
2022-08-30T22:21:48.079Z,99381.48
2022-08-30T22:26:51.719Z,99379.83
2022-08-30T22:31:55.228Z,99382.72
2022-08-30T22:36:58.862Z,99386.84
2022-08-30T22:42:02.397Z,99386.55
2022-08-30T22:47:06.101Z,99384.96
2022-08-30T22:52:09.322Z,99384.13
2022-08-30T22:57:15.780Z,99380.75
2022-08-30T23:02:19.030Z,99380.07
2022-08-30T23:07:22.625Z,99382.66
2022-08-30T23:12:26.654Z,99386.19
2022-08-30T23:17:29.823Z,99385.83
2022-08-30T23:22:41.530Z,99386.17
2022-08-30T23:28:04.942Z,99389.36
2022-08-30T23:33:26.693Z,99389.95
2022-08-30T23:38:48.482Z,99386.16
2022-08-30T23:44:10.773Z,99381.67
2022-08-30T23:49:32.402Z,99378.23
2022-08-30T23:54:55.745Z,99376.25
